Aviation Digital Data Service (ADDS)

Output produced by METARs form (0259 UTC 18 April 2014)
found at http://aviationweather.gov/adds/metars/
 
KHUL 172337Z 1800/1824 15003KT P6SM BKN180 
     FM181500 19008KT P6SM BKN180